Ardmore, OK

10:22 PM CDT on August 22, 2017 (GMT -0500)
Ardmore Municipal | | Change Station

Elev 761 ft 34.30 °N, 97.02 °W | Updated 27 minutes ago

Mostly Cloudy
Mostly Cloudy
82 °F
Feels Like 88 °F
N
0
Wind Variable Wind from North

Today
High -- | Low -- °F
--% Chance of Precip.
Yesterday
High -- | Low -- °F
Precip. -- in
Pressure 30.00 in
Visibility 10.0 miles
Clouds Mostly Cloudy 6000 ft
Mostly Cloudy 11000 ft
Heat Index 88 °F
Dew Point 76 °F
Humidity 82%
Rainfall 0.00 in
Snow Depth Not available.
6:54 AM 8:06 PM
New Moon, 2% visible
METAR KADM 230255Z AUTO 00000KT 10SM VCTS BKN060 BKN110 28/24 A3000 RMK AO2 LTG DSNT W THRU NE T02760242
Pressure 30.00 in
Visibility 10.0 miles
Clouds Mostly Cloudy 6000 ft
Mostly Cloudy 11000 ft
Heat Index 88 °F
Dew Point 76 °F
Humidity 82%
Rainfall 0.00 in
Snow Depth Not available.
6:54 AM 8:06 PM
New Moon, 2% visible
METAR KADM 230255Z AUTO 00000KT 10SM VCTS BKN060 BKN110 28/24 A3000 RMK AO2 LTG DSNT W THRU NE T02760242

Get Severe Weather Alerts

Thanks for signing up!

Be on the lookout for a verification email in your inbox.

You'll start receiving the daily forecast at 6 AM.

×

10-Day Weather Forecast

Almanac

Astronomy

Aug. 22, 2017 Rise Set
Actual Time
Civil Twilight
Nautical Twilight
Astronomical Twilight
Moon
Length of Visible Light
Length of Day
Tomorrow will be .
, % of the Moon is Illuminated

Today's Extremes

State Highs State Lows

Community

WunderPhotos

Category 6

Welcome to Category 6. This is the collective home for Weather Underground's featured writeups by Dr. Jeff Masters (right), Bob Henson (left), Chris Burt, and other regular contributors.

Nearby

Air Quality

  Air Quality AQ Index Pollutant
Not available.

Snow Depth

Station Depth Elevation

Earthquake Activity

City Distance Mag. Time & Date
Minimum magnitude displayed is 2.5.

Coastal Water Temperatures

Place Temperature

Stations

Nearby Weather Stations

Station Location Temp. Windchill Dew Point Humidity Wind Precip. Elev Updated Type
                   

Watches & Warnings

There are currently no watches in effect.